Time;durP1;ratioP1;P1;durP2;ratioP2;P2;SDS_P1;SDS_P2;PMS_P1;PMS_P2;Temp;Humidity;BMP_temperature;BMP_pressure;BME280_temperature;BME280_humidity;BME280_pressure;Samples;Min_cycle;Max_cycle;Signal;HPM_P1;HPM_P2
2021/03/29 00:00:47;;;;;;;6.38;3.28;;;7.00;69.70;;;;;;5072432;28;20020;-73
2021/03/29 00:03:14;;;;;;;6.25;2.72;;;6.90;69.90;;;;;;5071196;28;20027;-73
2021/03/29 00:05:40;;;;;;;6.45;3.00;;;7.10;69.60;;;;;;5072443;28;20483;-73
2021/03/29 00:08:07;;;;;;;7.10;2.75;;;7.10;69.40;;;;;;5072355;28;20495;-73
2021/03/29 00:10:35;;;;;;;8.85;2.70;;;7.20;69.40;;;;;;5072306;28;20021;-73
2021/03/29 00:13:02;;;;;;;4.63;2.90;;;7.20;69.40;;;;;;5072258;28;20059;-73
2021/03/29 00:15:32;;;;;;;6.75;2.85;;;7.20;68.80;;;;;;5072101;28;20364;-73
2021/03/29 00:17:58;;;;;;;5.68;2.90;;;7.00;69.50;;;;;;5072217;28;20392;-73
2021/03/29 00:20:29;;;;;;;5.07;2.75;;;6.80;70.40;;;;;;5072246;28;20446;-73
2021/03/29 00:22:57;;;;;;;4.50;3.05;;;6.60;71.10;;;;;;5087393;28;20398;-73
2021/03/29 00:25:25;;;;;;;5.60;3.10;;;6.50;71.80;;;;;;5071974;28;20115;-73
2021/03/29 00:27:51;;;;;;;6.50;4.68;;;6.40;72.10;;;;;;5072138;28;20039;-73
2021/03/29 00:30:23;;;;;;;4.22;2.67;;;6.30;72.40;;;;;;5072060;28;20025;-73
2021/03/29 00:32:50;;;;;;;5.45;2.13;;;6.30;72.40;;;;;;5087627;28;20071;-71
2021/03/29 00:35:18;;;;;;;5.50;2.78;;;6.20;72.10;;;;;;5071920;28;20036;-73
2021/03/29 00:37:47;;;;;;;4.75;3.10;;;6.30;72.20;;;;;;5072051;28;20028;-74
2021/03/29 00:40:14;;;;;;;3.83;2.70;;;6.50;71.70;;;;;;5071992;28;20028;-73
2021/03/29 00:42:41;;;;;;;6.43;3.08;;;6.60;71.50;;;;;;5071948;28;20023;-73
2021/03/29 00:45:10;;;;;;;4.50;2.78;;;6.60;70.50;;;;;;5087437;28;20027;-73
2021/03/29 00:47:36;;;;;;;4.47;2.58;;;6.60;71.10;;;;;;5070643;28;20073;-73
2021/03/29 00:50:13;;;;;;;9.02;2.63;;;6.60;70.60;;;;;;5070674;28;20430;-73
2021/03/29 00:52:39;;;;;;;4.22;2.40;;;6.40;71.20;;;;;;5071886;28;20031;-73
2021/03/29 00:55:08;;;;;;;5.82;2.10;;;6.40;71.20;;;;;;5053902;28;20097;-73
2021/03/29 00:57:35;;;;;;;6.18;2.42;;;6.40;71.30;;;;;;5071706;28;20027;-73
2021/03/29 01:00:12;;;;;;;10.55;2.95;;;6.40;71.20;;;;;;5071840;28;20103;-73
2021/03/29 01:02:38;;;;;;;7.93;3.38;;;6.60;70.30;;;;;;5071727;28;20409;-73
2021/03/29 01:05:25;;;;;;;6.78;2.97;;;6.40;70.70;;;;;;5071791;28;20039;-73
2021/03/29 01:07:53;;;;;;;2.97;2.03;;;6.30;71.00;;;;;;5071728;28;20598;-73
2021/03/29 01:10:20;;;;;;;5.40;2.88;;;6.40;71.30;;;;;;5071713;28;20027;-73
2021/03/29 01:12:47;;;;;;;7.45;3.08;;;6.20;71.20;;;;;;5071584;28;20054;-73
2021/03/29 01:15:16;;;;;;;6.70;3.25;;;6.20;71.80;;;;;;5071575;28;20021;-74
2021/03/29 01:17:45;;;;;;;3.70;2.70;;;6.20;71.40;;;;;;5071576;28;20544;-74
2021/03/29 01:20:28;;;;;;;7.30;2.55;;;6.10;71.50;;;;;;5053962;28;20130;-74
2021/03/29 01:22:56;;;;;;;7.35;2.92;;;6.10;72.20;;;;;;5070271;28;20048;-73
2021/03/29 01:25:24;;;;;;;5.57;2.88;;;6.30;71.30;;;;;;5071605;28;20081;-74
2021/03/29 01:27:57;;;;;;;5.82;2.67;;;6.30;71.00;;;;;;5071568;28;20021;-73
2021/03/29 01:30:24;;;;;;;7.32;3.20;;;6.30;70.80;;;;;;5071474;28;20524;-73
2021/03/29 01:32:52;;;;;;;5.82;3.13;;;6.10;71.30;;;;;;5071474;28;20416;-73
2021/03/29 01:35:21;;;;;;;5.75;2.53;;;6.10;71.70;;;;;;5072652;28;20124;-73
2021/03/29 01:37:49;;;;;;;7.07;2.50;;;6.00;72.00;;;;;;5075197;28;20021;-73
2021/03/29 01:40:17;;;;;;;4.32;2.50;;;6.00;71.80;;;;;;5074997;28;20067;-74
2021/03/29 01:42:45;;;;;;;5.53;2.47;;;6.10;71.30;;;;;;5075064;28;20043;-73
2021/03/29 01:45:12;;;;;;;8.45;2.80;;;6.00;72.10;;;;;;5075064;28;20028;-73
2021/03/29 01:47:39;;;;;;;3.05;2.30;;;6.10;71.30;;;;;;5075020;28;20021;-74
2021/03/29 01:50:07;;;;;;;3.97;2.35;;;5.90;70.90;;;;;;5074920;28;20028;-72
2021/03/29 01:52:33;;;;;;;10.55;4.15;;;6.00;71.10;;;;;;5074951;28;20021;-73
2021/03/29 01:55:00;;;;;;;9.13;2.58;;;5.80;71.30;;;;;;5074842;28;20027;-73
2021/03/29 01:57:26;;;;;;;5.18;2.53;;;5.80;71.80;;;;;;5074776;28;20024;-74
2021/03/29 01:59:53;;;;;;;9.05;2.58;;;5.90;71.50;;;;;;5073492;28;20360;-74
2021/03/29 02:02:19;;;;;;;3.83;2.67;;;5.80;72.20;;;;;;5074799;28;20483;-73
2021/03/29 02:04:46;;;;;;;4.95;2.22;;;5.90;72.20;;;;;;5073293;28;20502;-73
2021/03/29 02:07:13;;;;;;;9.18;2.80;;;5.80;71.10;;;;;;5074668;28;20063;-73
2021/03/29 02:09:40;;;;;;;10.88;2.67;;;6.00;71.00;;;;;;5074511;28;20154;-73
2021/03/29 02:12:08;;;;;;;5.45;3.05;;;6.10;70.70;;;;;;5074585;28;20029;-73
2021/03/29 02:14:35;;;;;;;5.18;2.58;;;6.30;70.20;;;;;;5074778;28;20063;-73
2021/03/29 02:17:08;;;;;;;7.78;3.00;;;6.30;69.30;;;;;;5074465;28;20475;-73
2021/03/29 02:19:35;;;;;;;4.90;2.60;;;6.40;68.70;;;;;;5074431;28;20352;-74
2021/03/29 02:22:02;;;;;;;3.55;2.35;;;6.30;67.90;;;;;;5074485;28;20028;-73
2021/03/29 02:24:30;;;;;;;7.80;3.22;;;6.20;68.40;;;;;;5074318;28;20078;-73
2021/03/29 02:26:58;;;;;;;4.00;2.15;;;6.40;68.20;;;;;;5074307;28;20495;-73
2021/03/29 02:29:28;;;;;;;4.70;2.88;;;6.50;68.10;;;;;;5072973;28;20028;-74
2021/03/29 02:31:58;;;;;;;2.80;2.17;;;6.60;67.30;;;;;;5074242;28;20033;-73
2021/03/29 02:34:25;;;;;;;9.05;2.63;;;6.40;66.40;;;;;;5074312;28;20028;-73
2021/03/29 02:36:52;;;;;;;8.65;2.67;;;6.50;66.80;;;;;;5074043;28;20033;-74
2021/03/29 02:39:20;;;;;;;5.60;2.20;;;6.60;66.00;;;;;;5074039;28;20031;-74
2021/03/29 02:41:47;;;;;;;4.38;2.47;;;6.50;66.20;;;;;;5074068;28;20471;-74
2021/03/29 02:44:16;;;;;;;6.55;2.45;;;6.40;66.20;;;;;;5072775;28;20025;-74
2021/03/29 02:46:43;;;;;;;5.38;2.33;;;6.20;66.40;;;;;;5073823;28;20718;-74
2021/03/29 02:49:09;;;;;;;4.63;2.08;;;6.10;67.10;;;;;;5073845;28;20028;-73
2021/03/29 02:51:40;;;;;;;5.28;2.35;;;6.00;67.00;;;;;;5089406;28;20074;-74
2021/03/29 02:54:08;;;;;;;7.05;2.55;;;6.00;67.20;;;;;;5073912;28;20580;-73
2021/03/29 02:56:44;;;;;;;4.70;2.03;;;6.00;67.70;;;;;;5073640;28;20074;-73
2021/03/29 02:59:19;;;;;;;4.63;2.55;;;5.90;67.40;;;;;;5073699;28;20483;-73
2021/03/29 03:01:46;;;;;;;4.22;2.10;;;5.70;67.80;;;;;;5073669;28;20116;-74
2021/03/29 03:04:14;;;;;;;5.22;2.30;;;5.70;67.90;;;;;;5073528;28;20439;-73
2021/03/29 03:06:40;;;;;;;7.05;3.65;;;5.70;68.10;;;;;;5073485;28;20025;-73
2021/03/29 03:09:08;;;;;;;4.20;2.28;;;5.80;67.70;;;;;;5073426;28;20090;-74
2021/03/29 03:11:35;;;;;;;3.70;2.20;;;5.80;67.50;;;;;;5073356;28;20436;-73
2021/03/29 03:14:06;;;;;;;3.92;2.60;;;5.80;67.20;;;;;;5073373;28;20115;-73
2021/03/29 03:16:35;;;;;;;7.15;2.22;;;5.90;67.00;;;;;;5073247;28;20178;-74
2021/03/29 03:19:01;;;;;;;5.25;2.67;;;6.00;67.10;;;;;;5088795;28;20066;-73
2021/03/29 03:21:27;;;;;;;6.90;2.00;;;5.90;66.20;;;;;;5073273;28;20479;-73
2021/03/29 03:23:55;;;;;;;5.65;2.63;;;5.80;66.20;;;;;;5073169;28;20012;-73
2021/03/29 03:26:22;;;;;;;4.13;2.28;;;5.80;66.60;;;;;;5073107;28;20089;-74
2021/03/29 03:28:48;;;;;;;10.77;2.22;;;5.90;66.40;;;;;;5071843;28;20025;-74
2021/03/29 03:31:14;;;;;;;5.30;2.08;;;5.80;65.60;;;;;;5071818;28;20028;-73
2021/03/29 03:33:40;;;;;;;3.00;2.03;;;5.80;65.60;;;;;;5072894;28;20025;-73
2021/03/29 03:36:06;;;;;;;6.45;2.30;;;5.80;66.00;;;;;;5071886;28;20035;-73
2021/03/29 03:38:35;;;;;;;3.55;2.03;;;5.80;65.80;;;;;;5088535;28;20064;-74
2021/03/29 03:41:03;;;;;;;2.92;1.95;;;5.80;66.10;;;;;;5071596;28;20028;-73
2021/03/29 03:43:32;;;;;;;5.13;2.38;;;5.90;65.30;;;;;;5071587;28;20027;-73
2021/03/29 03:46:07;;;;;;;3.42;1.95;;;6.00;65.40;;;;;;5072744;28;20052;-73
2021/03/29 03:48:34;;;;;;;4.90;2.05;;;5.90;65.60;;;;;;5072762;28;20047;-73
2021/03/29 03:50:59;;;;;;;5.20;2.22;;;6.00;66.00;;;;;;5071233;28;20021;-73
2021/03/29 03:53:27;;;;;;;8.13;2.47;;;5.80;66.00;;;;;;5088236;28;20027;-73
2021/03/29 03:55:55;;;;;;;5.70;2.58;;;6.00;66.10;;;;;;5072312;28;20032;-73
2021/03/29 03:58:21;;;;;;;8.00;2.50;;;5.90;65.50;;;;;;5072074;28;20044;-74
2021/03/29 04:00:48;;;;;;;9.98;2.38;;;5.80;66.30;;;;;;5071230;28;20507;-73
2021/03/29 04:03:14;;;;;;;7.90;3.03;;;5.80;66.60;;;;;;5072478;28;20017;-73
2021/03/29 04:05:40;;;;;;;6.68;3.05;;;5.70;66.40;;;;;;5072287;28;20029;-74
2021/03/29 04:08:07;;;;;;;4.88;3.00;;;5.80;66.30;;;;;;5072454;28;20103;-73
2021/03/29 04:10:41;;;;;;;7.63;2.92;;;5.80;65.80;;;;;;5072316;28;20427;-74
2021/03/29 04:13:11;;;;;;;4.35;2.55;;;5.90;65.70;;;;;;5072380;28;20025;-73
2021/03/29 04:15:37;;;;;;;4.93;2.70;;;5.80;64.60;;;;;;5070979;28;20021;-73
2021/03/29 04:18:04;;;;;;;7.35;2.47;;;6.00;65.30;;;;;;5070948;28;20024;-73
2021/03/29 04:20:30;;;;;;;6.05;2.53;;;6.10;65.20;;;;;;5072227;28;20048;-73
2021/03/29 04:22:57;;;;;;;4.38;2.35;;;6.10;64.70;;;;;;5072201;28;20052;-73
2021/03/29 04:25:23;;;;;;;3.85;2.30;;;6.00;64.40;;;;;;5072083;28;20028;-74
2021/03/29 04:27:49;;;;;;;3.80;2.00;;;5.90;64.50;;;;;;5071035;28;20387;-73
2021/03/29 04:30:15;;;;;;;6.82;2.50;;;5.90;63.60;;;;;;5072062;28;20032;-73
2021/03/29 04:32:45;;;;;;;5.70;2.40;;;5.70;63.80;;;;;;5072050;28;20031;-73
2021/03/29 04:35:11;;;;;;;4.70;2.05;;;5.70;64.30;;;;;;5071896;28;20078;-73
2021/03/29 04:37:37;;;;;;;3.83;2.00;;;5.80;64.40;;;;;;5087549;28;20024;-73
2021/03/29 04:40:03;;;;;;;3.17;2.45;;;6.00;64.00;;;;;;5071845;28;20379;-73
2021/03/29 04:42:29;;;;;;;3.60;2.35;;;5.90;62.80;;;;;;5071889;28;20055;-73
2021/03/29 04:44:55;;;;;;;2.92;2.63;;;5.60;63.80;;;;;;5070808;28;20499;-73
2021/03/29 04:47:20;;;;;;;5.25;2.38;;;5.70;64.70;;;;;;5071992;28;20060;-73
2021/03/29 04:49:46;;;;;;;7.05;2.58;;;5.70;64.70;;;;;;5071826;28;20034;-73
2021/03/29 04:52:12;;;;;;;5.28;2.28;;;5.70;64.60;;;;;;5071789;28;20028;-73
2021/03/29 04:54:38;;;;;;;5.22;2.72;;;5.80;64.40;;;;;;5071839;28;20051;-73
2021/03/29 04:57:04;;;;;;;3.30;2.40;;;5.70;63.60;;;;;;5071700;28;20078;-73
2021/03/29 04:59:30;;;;;;;4.45;2.38;;;5.80;63.80;;;;;;5071710;28;20021;-73
2021/03/29 05:01:55;;;;;;;8.27;2.58;;;5.90;63.70;;;;;;5070462;28;20031;-73
2021/03/29 05:04:21;;;;;;;10.35;2.72;;;5.80;63.20;;;;;;5071706;28;20017;-73
2021/03/29 05:06:47;;;;;;;5.57;2.78;;;5.70;63.90;;;;;;5053769;28;20077;-73
2021/03/29 05:09:12;;;;;;;7.07;2.92;;;5.80;63.60;;;;;;5071662;28;20112;-73
2021/03/29 05:11:50;;;;;;;4.10;2.83;;;6.00;62.80;;;;;;5075385;28;20035;-73
2021/03/29 05:14:16;;;;;;;9.48;3.25;;;5.90;62.30;;;;;;5075697;28;20037;-73
2021/03/29 05:16:43;;;;;;;5.38;2.72;;;5.80;62.90;;;;;;5074147;28;20499;-73
2021/03/29 05:19:10;;;;;;;3.25;2.00;;;6.00;63.20;;;;;;5075533;28;20491;-74
2021/03/29 05:21:36;;;;;;;5.53;2.35;;;6.10;62.30;;;;;;5090948;28;20077;-73
2021/03/29 05:24:02;;;;;;;14.48;2.72;;;5.90;62.20;;;;;;5075272;28;20028;-74
2021/03/29 05:26:28;;;;;;;18.17;3.53;;;5.90;62.90;;;;;;5075382;28;20047;-74
2021/03/29 05:28:54;;;;;;;9.65;2.50;;;6.00;63.00;;;;;;5075816;28;20028;-73
2021/03/29 05:31:20;;;;;;;10.05;3.15;;;5.80;62.40;;;;;;5074021;28;20032;-74
2021/03/29 05:33:46;;;;;;;8.77;2.55;;;5.80;62.80;;;;;;5075029;28;20062;-73
2021/03/29 05:36:14;;;;;;;7.95;2.70;;;5.90;62.70;;;;;;5075063;28;20052;-72
2021/03/29 05:38:44;;;;;;;2.63;2.20;;;5.80;63.60;;;;;;5075047;28;20017;-73
2021/03/29 05:41:12;;;;;;;5.75;2.13;;;5.70;64.10;;;;;;5075044;28;20518;-73
2021/03/29 05:43:39;;;;;;;9.00;2.58;;;5.70;63.50;;;;;;5075150;28;20024;-72
2021/03/29 05:46:05;;;;;;;4.35;2.70;;;5.70;63.40;;;;;;5074930;28;20032;-72
2021/03/29 05:48:31;;;;;;;7.55;2.88;;;5.70;63.50;;;;;;5073529;28;20089;-72
2021/03/29 05:51:00;;;;;;;4.38;2.08;;;6.00;63.40;;;;;;5073563;28;20099;-72
2021/03/29 05:53:26;;;;;;;7.95;2.47;;;5.90;62.60;;;;;;5073528;28;20024;-72
2021/03/29 05:55:52;;;;;;;11.02;2.88;;;6.00;63.40;;;;;;5074636;28;20021;-72
2021/03/29 06:00:51;;;;;;;4.88;2.40;;;5.90;62.70;;;;;;5074367;28;20067;-72
2021/03/29 06:03:24;;;;;;;3.88;2.40;;;6.00;61.90;;;;;;5074660;28;20029;-72
2021/03/29 06:05:52;;;;;;;4.50;2.42;;;6.10;62.00;;;;;;5090247;28;20020;-72
2021/03/29 06:08:19;;;;;;;6.57;2.78;;;6.30;62.20;;;;;;5074608;28;20074;-72
2021/03/29 06:10:45;;;;;;;6.25;2.42;;;6.50;61.20;;;;;;5073272;28;20029;-72
2021/03/29 06:13:16;;;;;;;5.93;2.25;;;6.50;61.00;;;;;;5090194;28;20059;-72
2021/03/29 06:15:42;;;;;;;7.85;2.22;;;6.60;60.70;;;;;;5074338;28;20106;-72
2021/03/29 06:18:15;;;;;;;5.25;2.90;;;6.90;60.70;;;;;;5074501;28;20055;-73
2021/03/29 06:21:01;;;;;;;3.40;2.10;;;6.90;60.10;;;;;;5089318;28;20031;-72
2021/03/29 06:23:28;;;;;;;22.92;4.03;;;6.90;59.50;;;;;;5074448;28;20361;-72
2021/03/29 06:26:32;;;;;;;39.80;6.55;;;6.90;59.60;;;;;;5089497;28;20033;-72
2021/03/29 06:28:58;;;;;;;34.72;3.95;;;7.10;58.60;;;;;;5015393;28;20061;-72
2021/03/29 06:31:34;;;;;;;5.55;2.33;;;7.20;58.80;;;;;;5031964;28;20568;-73
2021/03/29 06:34:02;;;;;;;17.58;3.00;;;7.30;58.00;;;;;;5054305;28;20078;-72
2021/03/29 06:36:33;;;;;;;32.00;5.43;;;7.40;57.90;;;;;;5073632;28;20043;-72
2021/03/29 06:39:34;;;;;;;12.57;3.15;;;7.60;58.30;;;;;;5073977;28;20499;-74
2021/03/29 06:42:00;;;;;;;18.45;3.13;;;7.80;57.70;;;;;;5065700;28;20029;-73
2021/03/29 06:44:44;;;;;;;5.70;1.85;;;8.00;57.90;;;;;;5074327;28;20036;-72
2021/03/29 06:47:14;;;;;;;10.32;2.70;;;8.00;57.00;;;;;;5073952;28;20075;-72
2021/03/29 06:49:50;;;;;;;7.85;1.95;;;8.00;57.40;;;;;;5073730;28;20029;-73
2021/03/29 06:52:25;;;;;;;7.45;2.42;;;8.10;57.50;;;;;;5073732;28;20357;-73
2021/03/29 06:54:52;;;;;;;5.57;2.28;;;8.30;58.00;;;;;;5073686;28;20365;-72
2021/03/29 06:57:33;;;;;;;7.32;2.28;;;8.30;58.30;;;;;;5073549;28;20032;-72
2021/03/29 06:59:58;;;;;;;3.63;2.22;;;8.40;58.50;;;;;;5073570;28;20082;-73
2021/03/29 07:02:45;;;;;;;4.35;2.55;;;8.40;58.20;;;;;;5073533;28;20474;-73
2021/03/29 07:05:12;;;;;;;5.72;2.25;;;8.30;57.60;;;;;;5073460;28;20429;-73
2021/03/29 07:07:39;;;;;;;5.97;2.65;;;8.30;57.90;;;;;;5072170;28;20029;-73
2021/03/29 07:10:07;;;;;;;4.13;2.30;;;8.50;58.20;;;;;;5089019;28;20028;-73
2021/03/29 07:12:40;;;;;;;14.00;2.67;;;8.50;58.30;;;;;;5073456;28;20109;-73
2021/03/29 07:15:12;;;;;;;10.05;2.40;;;8.60;57.80;;;;;;5071943;28;20097;-73
2021/03/29 07:17:40;;;;;;;14.88;2.58;;;8.80;58.50;;;;;;5073233;28;20047;-72
2021/03/29 07:20:11;;;;;;;4.68;2.17;;;9.00;58.40;;;;;;5073113;28;20031;-73
2021/03/29 07:22:39;;;;;;;5.13;2.70;;;9.10;58.10;;;;;;5073069;28;20074;-73
2021/03/29 07:25:30;;;;;;;8.73;2.40;;;9.20;58.30;;;;;;5071798;28;20115;-73
2021/03/29 07:27:59;;;;;;;9.35;2.63;;;9.20;58.40;;;;;;5064647;28;20086;-73
2021/03/29 07:30:47;;;;;;;4.65;2.08;;;9.30;58.30;;;;;;5073024;28;20108;-73
2021/03/29 07:33:18;;;;;;;9.23;2.17;;;9.40;58.40;;;;;;5072044;28;20387;-73
2021/03/29 07:35:55;;;;;;;4.43;2.35;;;9.60;58.70;;;;;;5072653;28;20024;-74
2021/03/29 07:38:23;;;;;;;5.35;2.50;;;9.70;57.90;;;;;;5072583;28;20501;-76
2021/03/29 07:40:51;;;;;;;13.13;2.70;;;9.80;57.10;;;;;;5071441;28;20025;-75
2021/03/29 07:43:22;;;;;;;4.63;2.25;;;9.90;57.60;;;;;;5071470;28;20024;-73
2021/03/29 07:45:54;;;;;;;6.70;2.60;;;10.10;57.40;;;;;;5072811;28;20036;-72
2021/03/29 07:48:47;;;;;;;13.50;2.42;;;10.20;55.80;;;;;;5072468;28;20020;-73
2021/03/29 07:51:14;;;;;;;3.53;2.00;;;10.30;56.80;;;;;;5070604;28;20032;-72
2021/03/29 07:53:52;;;;;;;12.43;2.97;;;10.40;57.20;;;;;;5072462;28;20136;-73
2021/03/29 07:56:33;;;;;;;7.18;2.95;;;10.50;57.70;;;;;;5087909;28;20111;-73
2021/03/29 07:58:59;;;;;;;3.30;2.35;;;10.60;57.60;;;;;;5072293;28;20021;-73
2021/03/29 08:01:25;;;;;;;22.00;2.90;;;10.80;56.10;;;;;;5072403;28;20016;-73
2021/03/29 08:03:54;;;;;;;6.90;3.00;;;10.90;55.50;;;;;;5070830;28;20078;-72
2021/03/29 08:06:39;;;;;;;5.78;2.15;;;11.00;55.40;;;;;;5072296;28;20063;-73
2021/03/29 08:09:07;;;;;;;8.82;2.58;;;11.10;54.30;;;;;;5072223;28;20104;-72
2021/03/29 08:11:56;;;;;;;5.93;2.10;;;11.30;53.00;;;;;;5072384;28;20039;-73
2021/03/29 08:14:27;;;;;;;6.30;2.25;;;11.40;51.80;;;;;;5070620;28;20044;-72
2021/03/29 08:16:53;;;;;;;4.75;2.30;;;11.50;50.70;;;;;;5070819;28;20024;-73
2021/03/29 08:19:21;;;;;;;12.73;2.22;;;11.60;50.10;;;;;;5069357;28;20035;-72
2021/03/29 08:22:14;;;;;;;5.82;2.85;;;11.70;50.20;;;;;;5072209;28;20016;-72
2021/03/29 08:24:50;;;;;;;4.82;2.30;;;11.70;49.60;;;;;;5072128;28;20020;-73
2021/03/29 08:27:19;;;;;;;9.70;2.60;;;11.80;48.70;;;;;;5072088;28;20027;-74
2021/03/29 08:29:46;;;;;;;9.57;2.95;;;12.00;50.00;;;;;;5070526;28;20047;-74
2021/03/29 08:32:18;;;;;;;8.60;2.55;;;12.10;47.60;;;;;;5071555;28;20035;-73
2021/03/29 08:34:52;;;;;;;7.60;2.60;;;12.10;47.80;;;;;;5070423;28;20491;-73
2021/03/29 08:37:23;;;;;;;6.78;2.35;;;12.30;49.30;;;;;;5070518;28;20040;-72
2021/03/29 08:39:50;;;;;;;8.02;3.63;;;12.40;49.70;;;;;;5071516;28;20074;-73
2021/03/29 08:42:18;;;;;;;9.85;2.50;;;12.80;48.60;;;;;;5071812;28;20096;-71
2021/03/29 08:44:46;;;;;;;6.60;2.25;;;13.00;48.00;;;;;;5070175;28;20533;-74
2021/03/29 08:47:17;;;;;;;9.57;2.72;;;13.40;47.30;;;;;;5053752;28;20510;-75
2021/03/29 08:49:45;;;;;;;14.23;2.83;;;13.60;46.40;;;;;;5071488;28;20020;-73
2021/03/29 08:52:11;;;;;;;15.32;2.72;;;13.70;45.30;;;;;;5071853;28;20107;-73
2021/03/29 08:54:57;;;;;;;18.60;2.97;;;13.80;44.40;;;;;;5071541;28;20075;-74
2021/03/29 08:57:29;;;;;;;16.15;3.45;;;14.00;44.60;;;;;;5072685;28;20021;-73
2021/03/29 08:59:57;;;;;;;43.22;3.75;;;14.00;44.30;;;;;;5081054;28;20118;-74
2021/03/29 09:02:23;;;;;;;6.68;2.20;;;14.30;44.80;;;;;;5064200;28;20032;-73
2021/03/29 09:04:52;;;;;;;13.13;2.67;;;14.50;43.70;;;;;;5071287;28;20019;-73
2021/03/29 09:07:18;;;;;;;7.93;2.00;;;14.70;43.00;;;;;;5084667;28;20475;-73
2021/03/29 09:09:44;;;;;;;20.92;2.95;;;14.80;43.50;;;;;;5090046;28;20024;-74
2021/03/29 09:12:32;;;;;;;9.95;2.50;;;15.10;42.40;;;;;;5087117;28;20021;-74
2021/03/29 09:15:00;;;;;;;7.90;2.30;;;15.60;42.00;;;;;;5077097;28;20081;-75
2021/03/29 09:17:31;;;;;;;4.60;2.25;;;16.00;41.00;;;;;;5078742;28;20028;-73
2021/03/29 09:19:58;;;;;;;2.67;1.93;;;16.20;40.30;;;;;;5071170;28;20066;-73
2021/03/29 09:22:29;;;;;;;6.85;1.95;;;16.10;40.10;;;;;;5071218;28;20145;-74
2021/03/29 09:24:56;;;;;;;27.63;3.03;;;16.20;41.60;;;;;;5071172;28;20024;-74
2021/03/29 09:27:29;;;;;;;30.67;4.60;;;16.60;40.70;;;;;;5071457;28;20338;-74
2021/03/29 09:29:55;;;;;;;16.75;3.15;;;17.00;39.30;;;;;;5070906;28;20025;-74
2021/03/29 09:32:22;;;;;;;5.28;2.40;;;17.10;38.80;;;;;;5081204;28;20383;-73
2021/03/29 09:34:50;;;;;;;13.60;2.47;;;17.50;39.10;;;;;;5091307;28;20039;-74
2021/03/29 09:37:34;;;;;;;11.35;2.40;;;17.50;39.20;;;;;;5090305;28;20459;-75
2021/03/29 09:40:07;;;;;;;12.35;2.83;;;17.60;37.80;;;;;;5091189;28;20020;-74
2021/03/29 09:42:45;;;;;;;3.92;1.92;;;18.00;37.90;;;;;;5090043;28;20518;-74
2021/03/29 09:45:29;;;;;;;10.85;2.25;;;18.50;37.80;;;;;;5091250;28;20048;-77
2021/03/29 09:47:59;;;;;;;7.53;2.25;;;19.00;37.50;;;;;;5073529;28;20020;-75
2021/03/29 09:50:31;;;;;;;11.57;2.63;;;18.90;36.20;;;;;;5071002;28;20112;-75
2021/03/29 09:53:15;;;;;;;5.22;2.50;;;19.00;37.20;;;;;;5071003;28;20013;-75
2021/03/29 09:55:45;;;;;;;14.57;2.97;;;19.40;36.50;;;;;;5071406;28;20557;-74
2021/03/29 09:58:30;;;;;;;6.55;1.95;;;19.60;36.60;;;;;;5073375;28;20058;-75
2021/03/29 10:00:58;;;;;;;10.77;2.72;;;19.90;35.00;;;;;;5072996;28;20028;-75
2021/03/29 10:03:25;;;;;;;5.45;2.38;;;19.90;32.90;;;;;;5074550;28;20020;-75
2021/03/29 10:05:52;;;;;;;7.00;2.35;;;19.70;32.20;;;;;;5077816;28;20028;-75
2021/03/29 10:08:27;;;;;;;17.35;3.13;;;19.30;32.90;;;;;;5094776;28;20382;-75
2021/03/29 10:11:07;;;;;;;20.40;2.33;;;19.80;33.40;;;;;;5094772;28;20055;-74
2021/03/29 10:13:38;;;;;;;3.97;2.08;;;20.20;31.70;;;;;;5093385;28;20024;-75
2021/03/29 10:16:26;;;;;;;6.27;2.07;;;20.30;31.50;;;;;;5093153;28;20047;-74
2021/03/29 10:19:06;;;;;;;24.85;3.25;;;20.90;31.00;;;;;;5074160;28;20031;-74
2021/03/29 10:21:34;;;;;;;26.10;3.70;;;21.00;31.20;;;;;;5056176;28;20128;-75
2021/03/29 10:24:15;;;;;;;28.77;5.32;;;21.20;30.50;;;;;;5073010;28;20032;-75
2021/03/29 10:27:08;;;;;;;11.77;2.55;;;21.10;29.70;;;;;;5073823;28;20024;-72
2021/03/29 10:29:37;;;;;;;8.13;1.90;;;21.20;30.30;;;;;;5072515;28;20024;-74
2021/03/29 10:32:10;;;;;;;4.55;1.95;;;21.50;29.90;;;;;;5073842;28;20025;-75
2021/03/29 10:34:39;;;;;;;4.72;1.98;;;21.80;29.90;;;;;;5055724;28;20116;-74
2021/03/29 10:37:20;;;;;;;9.40;2.20;;;21.70;30.30;;;;;;5072383;28;20067;-74
2021/03/29 10:39:46;;;;;;;9.73;2.35;;;22.00;30.10;;;;;;5073709;28;20511;-74
2021/03/29 10:42:13;;;;;;;19.35;2.88;;;22.10;29.10;;;;;;5073511;28;20021;-74
2021/03/29 10:44:38;;;;;;;8.20;2.17;;;22.10;29.10;;;;;;5072373;28;20500;-74
2021/03/29 10:47:04;;;;;;;15.75;2.78;;;22.40;28.80;;;;;;5073529;28;20028;-74
2021/03/29 10:49:30;;;;;;;50.38;4.00;;;22.60;28.60;;;;;;5073457;28;20024;-75
2021/03/29 10:51:56;;;;;;;31.88;2.90;;;22.80;28.90;;;;;;5073513;28;20355;-75
2021/03/29 10:54:21;;;;;;;17.05;2.33;;;23.10;28.20;;;;;;5073706;28;20099;-75
2021/03/29 10:56:47;;;;;;;28.05;3.50;;;23.30;27.90;;;;;;5073330;28;20060;-74
2021/03/29 10:59:13;;;;;;;16.27;2.47;;;23.20;28.10;;;;;;5073588;28;20021;-75
2021/03/29 11:01:39;;;;;;;13.18;2.90;;;22.70;27.90;;;;;;5073241;28;20067;-75
2021/03/29 11:04:05;;;;;;;10.38;2.67;;;22.80;28.20;;;;;;5071946;28;20056;-75
2021/03/29 11:06:30;;;;;;;72.55;5.63;;;23.20;27.80;;;;;;5083502;28;20625;-75
2021/03/29 11:08:56;;;;;;;27.17;2.42;;;22.60;27.70;;;;;;5093454;28;20054;-75
2021/03/29 11:11:22;;;;;;;29.05;3.53;;;22.30;28.10;;;;;;5093560;28;20043;-75
2021/03/29 11:13:47;;;;;;;12.38;1.83;;;22.10;28.10;;;;;;5092266;28;20028;-75
2021/03/29 11:16:14;;;;;;;16.27;2.75;;;22.70;28.50;;;;;;5093225;28;20050;-74
2021/03/29 11:18:40;;;;;;;53.80;5.63;;;23.00;27.60;;;;;;5093278;28;20502;-75
2021/03/29 11:21:06;;;;;;;15.50;2.22;;;22.80;27.80;;;;;;5083665;28;20017;-75
2021/03/29 11:23:33;;;;;;;18.20;3.20;;;22.20;27.60;;;;;;5054993;28;20115;-75
2021/03/29 11:25:59;;;;;;;9.25;1.73;;;22.70;28.80;;;;;;5072877;28;20024;-74
2021/03/29 11:28:25;;;;;;;20.20;3.08;;;22.80;27.90;;;;;;5072748;28;20586;-75
2021/03/29 11:30:51;;;;;;;6.38;2.00;;;23.10;27.60;;;;;;5072765;28;20115;-75
2021/03/29 11:33:17;;;;;;;18.80;3.88;;;22.70;28.40;;;;;;5071556;28;20028;-74
2021/03/29 11:35:43;;;;;;;5.45;2.15;;;22.60;27.70;;;;;;5072748;28;20033;-75
2021/03/29 11:38:08;;;;;;;14.98;2.25;;;22.50;28.20;;;;;;5072690;28;20028;-74
2021/03/29 11:40:34;;;;;;;72.85;7.22;;;22.80;27.90;;;;;;5072645;28;20365;-74
2021/03/29 11:43:00;;;;;;;29.15;3.72;;;22.80;28.00;;;;;;5071545;28;20016;-80
2021/03/29 11:45:26;;;;;;;12.80;2.60;;;23.00;28.50;;;;;;5071587;28;20086;-74
2021/03/29 11:47:52;;;;;;;23.20;3.10;;;23.50;27.70;;;;;;5071139;28;20024;-74
2021/03/29 11:50:18;;;;;;;5.50;1.92;;;23.60;27.60;;;;;;5072408;28;20036;-74
2021/03/29 11:52:44;;;;;;;15.10;3.28;;;24.00;26.30;;;;;;5072393;28;20032;-74
2021/03/29 11:55:11;;;;;;;13.77;3.45;;;23.80;26.50;;;;;;5072557;28;20058;-75
2021/03/29 11:57:43;;;;;;;14.00;3.22;;;23.60;27.10;;;;;;5071026;28;20028;-75
2021/03/29 12:00:17;;;;;;;9.93;2.88;;;23.30;26.40;;;;;;5072081;28;20024;-74
2021/03/29 12:02:53;;;;;;;11.10;2.50;;;23.30;26.60;;;;;;5072197;28;20040;-75
2021/03/29 12:05:27;;;;;;;13.13;2.42;;;24.00;26.40;;;;;;5072461;28;20021;-75
2021/03/29 12:13:23;;;;;;;11.05;2.30;;;23.80;27.80;;;;;;5092613;28;20028;-75
2021/03/29 12:15:51;;;;;;;9.57;2.45;;;24.00;26.50;;;;;;5092481;28;20034;-74
2021/03/29 12:19:00;;;;;;;5.07;2.40;;;23.70;26.00;;;;;;5090264;28;20043;-74
2021/03/29 12:21:11;;;;;;;17.83;3.55;;;24.00;25.60;;;;;;5076519;28;20032;-74
2021/03/29 12:23:41;;;;;;;10.55;2.38;;;23.30;25.10;;;;;;5070449;28;20495;-75
2021/03/29 12:26:09;;;;;;;16.42;2.97;;;22.70;25.60;;;;;;5071964;28;20020;-75
2021/03/29 12:28:37;;;;;;;6.47;2.17;;;22.20;26.10;;;;;;5070174;28;20024;-75
2021/03/29 12:31:03;;;;;;;12.38;2.25;;;21.70;26.80;;;;;;5071885;28;20533;-75
2021/03/29 12:33:29;;;;;;;18.15;2.78;;;21.70;27.30;;;;;;5070312;28;20035;-74
2021/03/29 12:35:56;;;;;;;13.55;3.10;;;22.00;27.20;;;;;;5071442;28;20032;-75
2021/03/29 12:38:30;;;;;;;7.97;2.40;;;22.20;26.60;;;;;;5071611;28;20420;-75
2021/03/29 12:40:57;;;;;;;6.72;2.40;;;22.40;26.80;;;;;;5071921;28;20415;-75
2021/03/29 12:43:42;;;;;;;13.10;2.72;;;22.70;26.40;;;;;;5070298;28;20519;-75
2021/03/29 12:46:08;;;;;;;4.65;2.20;;;22.70;26.90;;;;;;5070461;28;20400;-75
2021/03/29 12:48:39;;;;;;;10.80;2.40;;;22.70;27.00;;;;;;5070167;28;20035;-75
2021/03/29 12:51:06;;;;;;;4.18;2.13;;;22.30;27.00;;;;;;5071864;28;20067;-75
2021/03/29 12:53:33;;;;;;;13.90;2.65;;;21.90;27.50;;;;;;5070450;28;20436;-75
2021/03/29 12:56:00;;;;;;;12.60;2.85;;;21.80;28.10;;;;;;5072229;28;20074;-73
2021/03/29 12:58:26;;;;;;;9.23;2.63;;;21.90;27.60;;;;;;5072385;28;20029;-74
2021/03/29 13:00:53;;;;;;;6.72;2.20;;;21.80;27.50;;;;;;5053453;28;20094;-74
2021/03/29 13:03:21;;;;;;;8.23;2.40;;;21.80;27.60;;;;;;5071690;28;20013;-75
2021/03/29 13:05:53;;;;;;;13.13;3.00;;;21.80;28.00;;;;;;5075822;28;20093;-75
2021/03/29 13:08:23;;;;;;;;;;;21.90;27.30;;;;;;5091874;28;20429;-75
2021/03/29 13:13:36;;;;;;;7.60;2.67;;;21.80;27.40;;;;;;5091758;28;20445;-75